Time;durP1;ratioP1;P1;durP2;ratioP2;P2;SDS_P1;SDS_P2;PMS_P1;PMS_P2;Temp;Humidity;BMP_temperature;BMP_pressure;BME280_temperature;BME280_humidity;BME280_pressure;Samples;Min_cycle;Max_cycle;Signal;HPM_P1;HPM_P2
2023/09/27 00:02:00;;;;;;;4.13;2.67;;;19.50;75.00;;;;;;10490547;28;20635;-56
2023/09/27 00:07:01;;;;;;;3.65;2.50;;;19.50;74.90;;;;;;10491461;28;20515;-56
2023/09/27 00:12:04;;;;;;;3.78;2.40;;;19.50;74.90;;;;;;10453541;28;20051;-56
2023/09/27 00:17:05;;;;;;;4.60;2.22;;;19.50;74.90;;;;;;10450355;28;20443;-56
2023/09/27 00:22:06;;;;;;;2.90;2.05;;;19.50;74.90;;;;;;10450545;28;20074;-55
2023/09/27 00:27:10;;;;;;;3.25;2.60;;;19.50;74.90;;;;;;10449906;28;20036;-55
2023/09/27 00:32:12;;;;;;;4.07;2.60;;;19.50;74.90;;;;;;10461626;28;20097;-56
2023/09/27 00:37:12;;;;;;;4.75;2.50;;;19.50;74.80;;;;;;10449439;28;20078;-56
2023/09/27 00:42:13;;;;;;;4.50;2.47;;;19.50;74.80;;;;;;10449538;28;20025;-56
2023/09/27 00:47:14;;;;;;;2.97;2.30;;;19.50;74.80;;;;;;10457019;28;20083;-56
2023/09/27 00:52:15;;;;;;;4.10;2.78;;;19.50;74.80;;;;;;10453884;28;20036;-56
2023/09/27 00:57:16;;;;;;;3.40;2.30;;;19.50;74.80;;;;;;10486808;28;20044;-56
2023/09/27 01:02:17;;;;;;;4.05;2.20;;;19.40;74.80;;;;;;10499025;28;20466;-56
2023/09/27 01:07:18;;;;;;;3.67;2.30;;;19.40;74.80;;;;;;10498082;28;20036;-56
2023/09/27 01:12:19;;;;;;;3.92;2.70;;;19.40;74.80;;;;;;10457037;28;20018;-56
2023/09/27 01:17:20;;;;;;;4.25;2.45;;;19.50;75.40;;;;;;10456163;28;20040;-56
2023/09/27 01:22:20;;;;;;;4.07;2.55;;;19.40;74.80;;;;;;10456783;28;20833;-56
2023/09/27 01:27:23;;;;;;;4.35;3.13;;;19.40;74.80;;;;;;10456525;28;20052;-56
2023/09/27 01:32:24;;;;;;;3.53;2.65;;;19.50;74.90;;;;;;10467260;28;20036;-56
2023/09/27 01:37:25;;;;;;;3.92;2.60;;;19.40;74.80;;;;;;10455585;28;20493;-56
2023/09/27 01:42:26;;;;;;;3.05;2.05;;;19.40;74.80;;;;;;10455866;28;20114;-56
2023/09/27 01:47:27;;;;;;;3.25;2.20;;;19.40;74.80;;;;;;10464559;28;20102;-56
2023/09/27 01:52:27;;;;;;;4.28;2.75;;;19.40;74.80;;;;;;10496684;28;20036;-56
2023/09/27 01:57:28;;;;;;;2.65;2.35;;;19.40;74.80;;;;;;10496089;28;20549;-56
2023/09/27 02:02:29;;;;;;;5.28;2.58;;;19.40;74.70;;;;;;10496598;28;20028;-56
2023/09/27 02:07:30;;;;;;;4.15;2.78;;;19.40;74.70;;;;;;10494790;28;20071;-56
2023/09/27 02:12:31;;;;;;;3.55;2.70;;;19.40;74.80;;;;;;10496502;28;20025;-56
2023/09/27 02:17:31;;;;;;;3.65;2.67;;;19.40;74.90;;;;;;10495927;28;20045;-56
2023/09/27 02:22:32;;;;;;;4.90;3.03;;;19.40;74.80;;;;;;10478369;28;20052;-56
2023/09/27 02:27:33;;;;;;;3.38;2.33;;;19.40;74.80;;;;;;10453698;28;20075;-56
2023/09/27 02:32:34;;;;;;;3.75;2.50;;;19.40;74.70;;;;;;10463310;28;20033;-56
2023/09/27 02:37:36;;;;;;;3.50;2.78;;;19.40;74.80;;;;;;10453528;28;20053;-56
2023/09/27 02:42:50;;;;;;;3.88;2.80;;;19.40;74.80;;;;;;10453882;28;20029;-55
2023/09/27 02:47:51;;;;;;;4.60;3.53;;;19.40;74.70;;;;;;10465439;28;20068;-56
2023/09/27 02:52:51;;;;;;;3.53;2.75;;;19.40;74.70;;;;;;10494213;28;20035;-55
2023/09/27 02:57:52;;;;;;;2.83;2.38;;;19.40;74.80;;;;;;10493634;28;20041;-56
2023/09/27 03:02:53;;;;;;;3.13;2.47;;;19.40;74.70;;;;;;10494121;28;20031;-56
2023/09/27 03:07:57;;;;;;;3.63;2.38;;;19.30;74.70;;;;;;10493573;28;20037;-56
2023/09/27 03:12:58;;;;;;;2.70;2.45;;;19.30;74.70;;;;;;10493985;28;20421;-56
2023/09/27 03:17:59;;;;;;;4.28;2.97;;;19.30;74.70;;;;;;10492746;28;20055;-56
2023/09/27 03:23:00;;;;;;;3.55;2.45;;;19.30;74.70;;;;;;10492356;28;20024;-56
2023/09/27 03:28:01;;;;;;;5.78;3.25;;;19.30;74.60;;;;;;10482127;28;20082;-55
2023/09/27 03:33:02;;;;;;;4.45;2.72;;;19.30;74.50;;;;;;10464677;28;20458;-55
2023/09/27 03:38:03;;;;;;;4.15;2.38;;;19.40;74.70;;;;;;10464800;28;20028;-56
2023/09/27 03:43:04;;;;;;;3.97;3.00;;;19.40;74.80;;;;;;10464905;28;20479;-56
2023/09/27 03:48:05;;;;;;;5.03;2.35;;;19.40;74.90;;;;;;10464185;28;20029;-56
2023/09/27 03:53:06;;;;;;;4.65;2.67;;;19.40;74.80;;;;;;10463061;28;20550;-56
2023/09/27 03:58:07;;;;;;;4.43;2.60;;;19.50;74.80;;;;;;10455062;28;20079;-57
2023/09/27 04:03:07;;;;;;;4.47;2.38;;;19.40;74.90;;;;;;10449068;28;20021;-57
2023/09/27 04:08:10;;;;;;;3.83;3.08;;;19.40;74.80;;;;;;10446561;28;20032;-56
2023/09/27 04:13:11;;;;;;;4.65;2.75;;;19.30;74.70;;;;;;10447220;28;20041;-55
2023/09/27 04:18:12;;;;;;;5.15;2.30;;;19.30;74.80;;;;;;10446773;28;20412;-56
2023/09/27 04:23:13;;;;;;;3.75;2.50;;;19.30;74.70;;;;;;10447368;28;20112;-56
2023/09/27 04:28:14;;;;;;;3.78;2.88;;;19.30;74.70;;;;;;10452260;28;20231;-54
2023/09/27 04:33:15;;;;;;;6.15;2.70;;;19.30;74.70;;;;;;10463120;28;20041;-56
2023/09/27 04:38:16;;;;;;;4.35;2.47;;;19.30;74.70;;;;;;10468014;28;20083;-56
2023/09/27 04:43:17;;;;;;;3.35;2.78;;;19.30;74.60;;;;;;10455633;28;20029;-56
2023/09/27 04:48:17;;;;;;;2.95;2.58;;;19.30;74.70;;;;;;10470656;28;20274;-56
2023/09/27 04:53:18;;;;;;;4.25;2.40;;;19.30;74.60;;;;;;10497186;28;20422;-56
2023/09/27 04:58:20;;;;;;;2.88;2.47;;;19.30;74.60;;;;;;10495475;28;20028;-55
2023/09/27 05:03:21;;;;;;;2.72;2.28;;;19.20;74.50;;;;;;10495902;28;20047;-56
2023/09/27 05:08:22;;;;;;;3.50;2.50;;;19.20;74.50;;;;;;10495705;28;20478;-56
2023/09/27 05:13:23;;;;;;;2.67;2.17;;;19.20;74.50;;;;;;10495028;28;20392;-56
2023/09/27 05:18:23;;;;;;;3.85;2.78;;;19.30;74.60;;;;;;10491353;28;20036;-56
2023/09/27 05:23:24;;;;;;;2.92;2.30;;;19.20;74.50;;;;;;10495659;28;20050;-56
2023/09/27 05:28:25;;;;;;;4.53;2.63;;;19.20;74.50;;;;;;10500896;28;20049;-56
2023/09/27 05:33:26;;;;;;;5.10;2.42;;;19.20;74.50;;;;;;10456251;28;20032;-56
2023/09/27 05:38:26;;;;;;;4.75;2.65;;;19.30;74.60;;;;;;10472434;28;20387;-54
2023/09/27 05:43:27;;;;;;;6.65;3.00;;;19.30;74.30;;;;;;10495037;28;20054;-56
2023/09/27 05:48:28;;;;;;;8.32;2.90;;;19.40;74.70;;;;;;10464330;28;20033;-56
2023/09/27 05:53:28;;;;;;;4.78;3.13;;;19.40;74.20;;;;;;10454478;28;20475;-57
2023/09/27 05:58:34;;;;;;;10.95;3.42;;;19.50;74.70;;;;;;10467303;28;20033;-55
2023/09/27 06:03:36;;;;;;;8.35;3.00;;;19.50;74.50;;;;;;10454002;28;20086;-55
2023/09/27 06:08:37;;;;;;;5.55;3.03;;;19.50;74.40;;;;;;10453281;28;20462;-56
2023/09/27 06:13:37;;;;;;;8.20;2.80;;;19.50;74.20;;;;;;10453642;28;20054;-56
2023/09/27 06:18:38;;;;;;;7.63;3.15;;;19.50;74.10;;;;;;10463248;28;20044;-55
2023/09/27 06:23:39;;;;;;;15.43;5.00;;;19.50;74.50;;;;;;10478534;28;20024;-55
2023/09/27 06:28:40;;;;;;;8.25;3.47;;;19.40;74.60;;;;;;10472717;28;20078;-56
2023/09/27 06:33:41;;;;;;;16.25;4.10;;;19.40;74.70;;;;;;10466254;28;20033;-56
2023/09/27 06:38:42;;;;;;;15.98;4.45;;;19.40;75.00;;;;;;10481575;28;20048;-56
2023/09/27 06:43:43;;;;;;;13.15;3.97;;;19.40;74.90;;;;;;10494768;28;20025;-56
2023/09/27 06:48:44;;;;;;;17.30;3.85;;;19.40;74.80;;;;;;10460918;28;20029;-55
2023/09/27 06:53:45;;;;;;;15.23;4.55;;;19.50;74.90;;;;;;10455503;28;20029;-56
2023/09/27 06:58:46;;;;;;;28.15;6.10;;;19.50;74.90;;;;;;10471849;28;20033;-56
2023/09/27 07:03:48;;;;;;;22.13;5.85;;;19.50;75.00;;;;;;10460580;28;20032;-57
2023/09/27 07:08:52;;;;;;;34.70;7.35;;;19.60;75.10;;;;;;10470792;28;20032;-57
2023/09/27 07:13:53;;;;;;;30.00;5.40;;;19.60;75.00;;;;;;10473589;28;20056;-56
2023/09/27 07:18:54;;;;;;;23.38;5.28;;;19.60;75.20;;;;;;10452023;28;20096;-56
2023/09/27 07:23:55;;;;;;;28.42;5.40;;;19.60;75.30;;;;;;10452619;28;20036;-56
2023/09/27 07:28:56;;;;;;;28.48;5.85;;;19.60;75.20;;;;;;10469157;28;20364;-56
2023/09/27 07:33:57;;;;;;;25.20;6.30;;;19.60;75.20;;;;;;10477559;28;20043;-60
2023/09/27 07:38:59;;;;;;;21.20;5.18;;;19.60;75.10;;;;;;10485752;28;20035;-58
2023/09/27 07:43:59;;;;;;;21.50;6.30;;;19.60;75.00;;;;;;10492968;28;20115;-57
2023/09/27 07:49:00;;;;;;;27.38;6.88;;;19.60;75.00;;;;;;10492005;28;20456;-56
2023/09/27 07:54:03;;;;;;;16.35;6.18;;;19.60;75.10;;;;;;10491872;28;20044;-56
2023/09/27 07:59:04;;;;;;;20.05;6.40;;;19.50;75.10;;;;;;10490815;28;20510;-56
2023/09/27 08:04:06;;;;;;;13.73;5.20;;;19.50;75.20;;;;;;10491061;28;20025;-56
2023/09/27 08:09:06;;;;;;;17.63;6.70;;;19.50;75.20;;;;;;10490140;28;20224;-57
2023/09/27 08:14:08;;;;;;;21.33;5.95;;;19.50;75.00;;;;;;10490877;28;20032;-56
2023/09/27 08:19:09;;;;;;;15.27;5.70;;;19.50;75.10;;;;;;10490129;28;20048;-56
2023/09/27 08:24:09;;;;;;;14.32;5.60;;;19.50;75.10;;;;;;10490796;28;20532;-56
2023/09/27 08:29:12;;;;;;;10.73;6.03;;;19.50;75.10;;;;;;10489283;28;20085;-56
2023/09/27 08:34:13;;;;;;;15.27;5.32;;;19.50;75.10;;;;;;10489874;28;20040;-57
2023/09/27 08:39:14;;;;;;;9.23;4.45;;;19.50;75.20;;;;;;10487790;28;20025;-56
2023/09/27 08:44:15;;;;;;;13.10;4.65;;;19.50;75.10;;;;;;10447441;28;20025;-56
2023/09/27 08:49:17;;;;;;;8.15;4.38;;;19.50;75.10;;;;;;10465876;28;20041;-55
2023/09/27 08:54:21;;;;;;;9.75;4.50;;;19.60;75.50;;;;;;10451939;28;20086;-56
2023/09/27 08:59:23;;;;;;;9.82;4.75;;;19.60;74.90;;;;;;10448275;28;20115;-56
2023/09/27 09:04:24;;;;;;;11.32;3.67;;;19.60;74.70;;;;;;10447218;28;20028;-56
2023/09/27 09:09:26;;;;;;;15.63;5.07;;;19.60;75.20;;;;;;10447368;28;20199;-56
2023/09/27 09:14:49;;;;;;;11.75;4.22;;;19.70;74.60;;;;;;10448612;28;20060;-56
2023/09/27 09:20:17;;;;;;;10.15;3.78;;;19.60;74.60;;;;;;10452654;28;20033;-56
2023/09/27 09:25:19;;;;;;;6.90;4.45;;;19.70;74.70;;;;;;10455882;28;20025;-55
2023/09/27 09:30:37;;;;;;;9.07;4.95;;;19.70;74.70;;;;;;10496374;28;20050;-56
2023/09/27 09:35:38;;;;;;;6.80;4.00;;;19.70;74.70;;;;;;10538641;28;20050;-55
2023/09/27 09:40:56;;;;;;;8.75;4.07;;;19.70;74.80;;;;;;10537778;28;20042;-56
2023/09/27 09:45:57;;;;;;;9.73;4.03;;;19.70;74.90;;;;;;10528314;28;20033;-56
2023/09/27 09:51:05;;;;;;;7.95;3.92;;;19.70;74.80;;;;;;10495546;28;20407;-56
2023/09/27 09:56:08;;;;;;;8.57;4.07;;;19.70;74.90;;;;;;10495590;28;20036;-56
2023/09/27 10:01:12;;;;;;;9.52;4.68;;;19.70;74.90;;;;;;10495521;28;20016;-56
2023/09/27 10:06:16;;;;;;;7.00;3.15;;;19.70;74.90;;;;;;10495054;28;20063;-56
2023/09/27 10:11:18;;;;;;;7.68;3.63;;;19.70;74.80;;;;;;10493516;28;20035;-55
2023/09/27 10:16:22;;;;;;;5.32;3.33;;;19.80;74.80;;;;;;10493686;28;20049;-55
2023/09/27 10:21:23;;;;;;;6.13;3.90;;;19.80;74.70;;;;;;10494583;28;20024;-56
2023/09/27 10:26:26;;;;;;;6.03;3.50;;;19.80;74.70;;;;;;10495189;28;20040;-56
2023/09/27 10:31:29;;;;;;;7.80;3.40;;;19.80;74.70;;;;;;10524138;28;20703;-56
2023/09/27 10:36:31;;;;;;;8.77;3.63;;;19.80;74.80;;;;;;10536004;28;20032;-56
2023/09/27 10:41:31;;;;;;;6.60;3.35;;;19.80;74.80;;;;;;10535595;28;20031;-56
2023/09/27 10:46:48;;;;;;;5.65;3.30;;;19.80;74.90;;;;;;10520100;28;20047;-56
2023/09/27 10:51:49;;;;;;;6.07;3.05;;;19.80;74.80;;;;;;10493270;28;20032;-55
2023/09/27 10:56:55;;;;;;;6.25;4.05;;;19.80;74.90;;;;;;10494103;28;20032;-56
2023/09/27 11:01:58;;;;;;;7.78;3.95;;;19.80;76.40;;;;;;10493321;28;20529;-56
2023/09/27 11:06:59;;;;;;;4.00;3.15;;;20.00;79.40;;;;;;10492658;28;20025;-55
2023/09/27 11:12:00;;;;;;;4.70;3.30;;;20.10;78.90;;;;;;10493145;28;20430;-55
2023/09/27 11:17:25;;;;;;;4.30;3.20;;;20.00;76.70;;;;;;10493154;28;20086;-56
2023/09/27 11:22:27;;;;;;;6.97;3.25;;;20.10;78.40;;;;;;10492872;28;20563;-56
2023/09/27 11:27:28;;;;;;;4.85;3.40;;;20.10;77.80;;;;;;10492342;28;20067;-56
2023/09/27 11:32:47;;;;;;;6.40;3.53;;;20.00;77.70;;;;;;10530108;28;20066;-56
2023/09/27 11:37:48;;;;;;;5.05;3.10;;;20.00;77.60;;;;;;10532890;28;20035;-56
2023/09/27 11:42:49;;;;;;;4.70;3.13;;;20.00;76.50;;;;;;10532656;28;20028;-56
2023/09/27 11:47:51;;;;;;;4.18;2.75;;;19.90;75.60;;;;;;10507079;28;20445;-55
2023/09/27 11:52:51;;;;;;;3.85;2.83;;;20.00;75.50;;;;;;10489603;28;20097;-55
2023/09/27 11:57:58;;;;;;;4.20;2.80;;;20.10;75.60;;;;;;10491090;28;20029;-56
2023/09/27 12:02:58;;;;;;;4.20;3.28;;;20.10;75.60;;;;;;10490502;28;20024;-56
2023/09/27 12:07:59;;;;;;;4.03;2.70;;;20.10;75.40;;;;;;10491321;28;20511;-56
2023/09/27 12:13:00;;;;;;;4.50;2.92;;;20.10;75.50;;;;;;10490746;28;20029;-56
2023/09/27 12:18:01;;;;;;;4.65;2.92;;;20.20;75.50;;;;;;10490471;28;20047;-55
2023/09/27 12:23:02;;;;;;;4.65;2.97;;;20.20;75.40;;;;;;10490739;28;20048;-56
2023/09/27 12:28:03;;;;;;;4.07;3.10;;;20.20;75.40;;;;;;10492064;28;20039;-56
2023/09/27 12:33:04;;;;;;;4.20;3.00;;;20.20;75.40;;;;;;10531197;28;20032;-56
2023/09/27 12:38:07;;;;;;;3.35;2.90;;;20.20;75.40;;;;;;10532262;28;20390;-55
2023/09/27 12:43:09;;;;;;;3.55;2.75;;;20.20;75.40;;;;;;10531081;28;20440;-56
2023/09/27 12:48:09;;;;;;;4.22;3.13;;;20.20;75.40;;;;;;10503024;28;20063;-55
2023/09/27 12:53:10;;;;;;;4.18;2.88;;;20.10;75.40;;;;;;10493081;28;20037;-56
2023/09/27 12:58:13;;;;;;;4.85;2.80;;;20.10;75.40;;;;;;10498128;28;20372;-56
2023/09/27 13:03:13;;;;;;;6.78;3.38;;;20.10;75.30;;;;;;10497687;28;20053;-56
2023/09/27 13:08:14;;;;;;;4.13;3.10;;;20.10;75.40;;;;;;10498127;28;20024;-55
2023/09/27 13:13:15;;;;;;;3.78;3.17;;;20.10;75.40;;;;;;10496779;28;20036;-56
2023/09/27 13:18:16;;;;;;;4.28;2.85;;;20.10;75.50;;;;;;10497126;28;20048;-56
2023/09/27 13:23:16;;;;;;;3.95;3.08;;;20.10;75.50;;;;;;10496655;28;20024;-56
2023/09/27 13:28:17;;;;;;;3.05;2.70;;;20.10;75.50;;;;;;10500370;28;20030;-55
2023/09/27 13:33:18;;;;;;;4.35;2.50;;;20.00;75.50;;;;;;10538753;28;20403;-55
2023/09/27 13:38:19;;;;;;;3.70;2.67;;;20.10;75.60;;;;;;10538245;28;20028;-56
2023/09/27 13:43:20;;;;;;;2.83;2.38;;;20.10;75.50;;;;;;10537654;28;20049;-57
2023/09/27 13:48:22;;;;;;;4.05;2.95;;;20.10;75.50;;;;;;10507390;28;20546;-60
2023/09/27 13:53:23;;;;;;;3.55;2.72;;;20.10;75.30;;;;;;10467898;28;20039;-56
2023/09/27 13:58:24;;;;;;;3.63;2.70;;;20.10;75.30;;;;;;10467456;28;20032;-56
2023/09/27 14:03:24;;;;;;;9.77;3.90;;;20.10;75.00;;;;;;10485138;28;20475;-59
2023/09/27 14:08:25;;;;;;;9.13;3.60;;;20.10;75.00;;;;;;10471962;28;20029;-59
2023/09/27 14:13:26;;;;;;;7.25;3.90;;;20.20;74.80;;;;;;10494487;28;20033;-59
2023/09/27 14:18:27;;;;;;;9.27;4.57;;;20.10;74.90;;;;;;10494538;28;20123;-56
2023/09/27 14:23:28;;;;;;;16.70;4.55;;;20.10;75.40;;;;;;10494996;28;20056;-56
2023/09/27 14:28:29;;;;;;;16.02;5.40;;;20.10;75.30;;;;;;10499751;28;20497;-58
2023/09/27 14:33:30;;;;;;;28.63;7.05;;;20.10;75.30;;;;;;10536016;28;20074;-57
2023/09/27 14:38:34;;;;;;;34.88;12.77;;;20.20;75.70;;;;;;10535384;28;20024;-60
2023/09/27 14:43:38;;;;;;;27.02;11.27;;;20.40;78.70;;;;;;10535941;28;20020;-58
2023/09/27 14:48:40;;;;;;;28.58;9.88;;;20.50;77.30;;;;;;10502273;28;20395;-58
2023/09/27 14:53:40;;;;;;;24.08;7.95;;;20.40;76.70;;;;;;10491976;28;20071;-59
2023/09/27 14:58:41;;;;;;;18.08;8.65;;;20.30;75.50;;;;;;10489921;28;20442;-58
2023/09/27 15:03:42;;;;;;;21.52;6.28;;;20.30;76.50;;;;;;10491813;28;20036;-56
2023/09/27 15:08:47;;;;;;;21.60;6.45;;;20.50;77.70;;;;;;10492836;28;20098;-58
2023/09/27 15:13:47;;;;;;;16.05;6.55;;;20.70;76.10;;;;;;10472425;28;20109;-56
2023/09/27 15:18:49;;;;;;;28.00;7.80;;;20.80;75.10;;;;;;10455908;28;20473;-56
2023/09/27 15:23:50;;;;;;;18.65;8.35;;;20.90;75.00;;;;;;10451231;28;20033;-60
2023/09/27 15:28:50;;;;;;;20.98;9.98;;;20.90;75.40;;;;;;10465909;28;20375;-57
2023/09/27 15:33:51;;;;;;;18.50;9.15;;;21.00;75.20;;;;;;10477798;28;20101;-56
2023/09/27 15:38:52;;;;;;;17.08;8.52;;;21.10;75.40;;;;;;10473555;28;20510;-57
2023/09/27 15:43:54;;;;;;;18.50;8.48;;;20.90;76.00;;;;;;10490995;28;20479;-56
2023/09/27 15:48:57;;;;;;;22.00;11.05;;;21.10;76.10;;;;;;10475216;28;20037;-56
2023/09/27 15:53:57;;;;;;;16.15;8.20;;;21.20;76.30;;;;;;10492805;28;20059;-56
2023/09/27 15:58:58;;;;;;;19.60;9.60;;;21.30;76.40;;;;;;10492033;28;20029;-57
2023/09/27 16:03:59;;;;;;;21.40;10.80;;;21.20;77.00;;;;;;10491893;28;20491;-57
2023/09/27 16:09:00;;;;;;;21.55;9.52;;;21.30;77.50;;;;;;10491682;28;20040;-55
2023/09/27 16:14:00;;;;;;;16.48;9.05;;;21.60;77.10;;;;;;10490579;28;20028;-56
2023/09/27 16:19:01;;;;;;;14.30;8.98;;;21.60;76.80;;;;;;10489950;28;20064;-57
2023/09/27 16:24:03;;;;;;;14.45;8.80;;;21.50;77.40;;;;;;10491745;28;20074;-57
2023/09/27 16:29:04;;;;;;;16.67;8.98;;;21.30;77.60;;;;;;10490235;28;20445;-57
2023/09/27 16:34:05;;;;;;;15.48;7.90;;;21.50;77.10;;;;;;10468524;28;20028;-57
2023/09/27 16:39:07;;;;;;;13.07;8.82;;;21.60;76.60;;;;;;10449734;28;20076;-57
2023/09/27 16:44:07;;;;;;;15.15;8.13;;;21.60;76.50;;;;;;10477414;28;20086;-57
2023/09/27 16:49:08;;;;;;;16.80;7.78;;;21.40;77.20;;;;;;10491068;28;20029;-57
2023/09/27 16:54:09;;;;;;;13.18;8.20;;;21.20;77.30;;;;;;10480548;28;20059;-57
2023/09/27 16:59:10;;;;;;;13.02;7.00;;;21.10;77.90;;;;;;10480817;28;20036;-57
2023/09/27 17:04:12;;;;;;;12.95;7.43;;;21.00;78.20;;;;;;10490594;28;20020;-60
2023/09/27 17:09:14;;;;;;;16.27;7.50;;;20.90;78.80;;;;;;10490509;28;20029;-58
2023/09/27 17:14:14;;;;;;;15.60;7.78;;;20.90;78.60;;;;;;10490591;28;20033;-57
2023/09/27 17:19:25;;;;;;;12.40;6.75;;;20.80;78.60;;;;;;10489676;28;20044;-56
2023/09/27 17:24:25;;;;;;;11.13;7.43;;;20.70;78.60;;;;;;10480666;28;20047;-57
2023/09/27 17:29:26;;;;;;;11.63;6.53;;;20.70;78.60;;;;;;10470130;28;20029;-57
2023/09/27 17:34:27;;;;;;;11.30;7.50;;;20.60;78.50;;;;;;10482983;28;20106;-60
2023/09/27 17:39:28;;;;;;;9.85;6.15;;;20.50;78.40;;;;;;10466932;28;20029;-57
2023/09/27 17:44:29;;;;;;;12.48;6.45;;;20.50;78.30;;;;;;10473233;28;20028;-57
2023/09/27 17:49:29;;;;;;;10.45;6.68;;;20.50;78.40;;;;;;10478928;28;20436;-57
2023/09/27 17:54:30;;;;;;;7.97;5.82;;;20.50;78.40;;;;;;10485701;28;20128;-56
2023/09/27 17:59:31;;;;;;;15.93;6.22;;;20.40;78.30;;;;;;10496123;28;20040;-57
2023/09/27 18:04:32;;;;;;;8.18;5.90;;;20.50;78.40;;;;;;10496392;28;20032;-57
2023/09/27 18:09:36;;;;;;;8.90;6.00;;;20.40;78.30;;;;;;10492413;28;20032;-57
2023/09/27 18:14:37;;;;;;;9.13;5.82;;;20.40;78.40;;;;;;10481464;28;20025;-57
2023/09/27 18:19:37;;;;;;;6.95;6.28;;;20.40;78.20;;;;;;10477301;28;20040;-57
2023/09/27 18:24:38;;;;;;;11.27;5.97;;;20.40;78.20;;;;;;10477364;28;20024;-57
2023/09/27 18:29:40;;;;;;;7.95;6.38;;;20.40;78.20;;;;;;10477420;28;20036;-57
2023/09/27 18:34:41;;;;;;;8.73;4.93;;;20.40;78.20;;;;;;10476754;28;20159;-57
2023/09/27 18:39:43;;;;;;;11.07;6.55;;;20.40;78.20;;;;;;10491242;28;20071;-57
2023/09/27 18:44:44;;;;;;;9.52;6.03;;;20.30;78.10;;;;;;10475719;28;20037;-57
2023/09/27 18:49:45;;;;;;;7.97;5.47;;;20.30;78.10;;;;;;10467597;28;20140;-58
2023/09/27 18:54:48;;;;;;;9.25;5.72;;;20.40;78.10;;;;;;10470061;28;20411;-57
2023/09/27 18:59:48;;;;;;;7.65;6.28;;;20.40;78.10;;;;;;10469205;28;20044;-57
2023/09/27 19:04:49;;;;;;;9.93;6.57;;;20.40;77.90;;;;;;10467360;28;20669;-57
2023/09/27 19:09:50;;;;;;;10.70;5.68;;;20.40;78.00;;;;;;10473400;28;20531;-60
2023/09/27 19:14:51;;;;;;;11.65;5.78;;;20.50;77.50;;;;;;10474389;28;20035;-60
2023/09/27 19:19:51;;;;;;;6.65;4.47;;;20.60;77.40;;;;;;10472642;28;20045;-58
2023/09/27 19:24:52;;;;;;;7.00;5.25;;;20.60;77.30;;;;;;10470243;28;20052;-58
2023/09/27 19:29:53;;;;;;;7.47;5.55;;;20.50;77.40;;;;;;10500418;28;20032;-59
2023/09/27 19:34:54;;;;;;;7.65;5.47;;;20.40;77.70;;;;;;10489734;28;20408;-59
2023/09/27 19:39:55;;;;;;;5.80;5.07;;;20.40;77.90;;;;;;10489628;28;20033;-58
2023/09/27 19:44:55;;;;;;;10.80;6.07;;;20.30;77.90;;;;;;10482842;28;20134;-59
2023/09/27 19:49:56;;;;;;;6.32;5.65;;;20.30;77.90;;;;;;10466889;28;20036;-58
2023/09/27 19:54:57;;;;;;;8.43;4.97;;;20.30;77.90;;;;;;10483972;28;20209;-58
2023/09/27 19:59:58;;;;;;;7.20;5.78;;;20.30;77.90;;;;;;10481666;28;20028;-59
2023/09/27 20:04:59;;;;;;;7.25;5.28;;;20.30;77.90;;;;;;10488820;28;20085;-58
2023/09/27 20:10:00;;;;;;;6.82;5.63;;;20.20;77.80;;;;;;10487397;28;20105;-57
2023/09/27 20:15:01;;;;;;;9.32;6.20;;;20.20;77.90;;;;;;10489416;28;20376;-58
2023/09/27 20:20:02;;;;;;;7.63;5.32;;;20.30;77.90;;;;;;10488449;28;20039;-58
2023/09/27 20:25:04;;;;;;;9.07;6.50;;;20.20;77.90;;;;;;10488985;28;20123;-58
2023/09/27 20:30:06;;;;;;;6.78;5.32;;;20.30;77.90;;;;;;10488083;28;20368;-58
2023/09/27 20:35:07;;;;;;;5.65;4.82;;;20.20;77.80;;;;;;10488487;28;20036;-58
2023/09/27 20:40:08;;;;;;;8.20;5.95;;;20.20;77.80;;;;;;10488145;28;20036;-58
2023/09/27 20:45:10;;;;;;;6.60;5.35;;;20.20;77.80;;;;;;10488198;28;20017;-58
2023/09/27 20:50:11;;;;;;;6.32;5.07;;;20.20;77.80;;;;;;10487779;28;20064;-58
2023/09/27 20:55:11;;;;;;;8.35;4.93;;;20.20;77.70;;;;;;10486923;28;20029;-59
2023/09/27 21:00:13;;;;;;;6.82;4.93;;;20.20;77.80;;;;;;10487892;28;20037;-58
2023/09/27 21:05:14;;;;;;;6.00;5.40;;;20.20;77.70;;;;;;10488604;28;20020;-59
2023/09/27 21:10:15;;;;;;;6.68;4.85;;;20.20;77.70;;;;;;10487302;28;20048;-59
2023/09/27 21:15:16;;;;;;;6.43;5.82;;;20.20;77.70;;;;;;10492382;28;20028;-59
2023/09/27 21:20:17;;;;;;;5.50;4.90;;;20.20;77.60;;;;;;10495075;28;20032;-59
2023/09/27 21:25:18;;;;;;;6.70;5.15;;;20.20;77.70;;;;;;10495886;28;20071;-59
2023/09/27 21:30:18;;;;;;;5.18;4.32;;;20.20;77.60;;;;;;10515139;28;20097;-59
2023/09/27 21:35:20;;;;;;;5.57;4.63;;;20.20;77.50;;;;;;10537111;28;20331;-57
2023/09/27 21:40:21;;;;;;;6.53;4.80;;;20.20;77.50;;;;;;10536054;28;20103;-59
2023/09/27 21:45:22;;;;;;;6.15;5.18;;;20.20;77.50;;;;;;10531246;28;20350;-59
2023/09/27 21:50:22;;;;;;;6.75;4.78;;;20.20;77.60;;;;;;10493972;28;20078;-58
2023/09/27 21:55:23;;;;;;;6.13;4.90;;;20.10;77.40;;;;;;10494408;28;20060;-58
2023/09/27 22:00:28;;;;;;;6.20;5.13;;;20.10;77.50;;;;;;10494143;28;20029;-58
2023/09/27 22:05:32;;;;;;;5.70;4.18;;;20.10;77.40;;;;;;10494043;28;20028;-58
2023/09/27 22:10:42;;;;;;;7.38;4.53;;;20.10;77.40;;;;;;10493322;28;20586;-59
2023/09/27 22:15:43;;;;;;;5.68;4.13;;;20.10;77.40;;;;;;10493249;28;20131;-59
2023/09/27 22:20:47;;;;;;;6.28;5.05;;;20.10;77.40;;;;;;10492933;28;20109;-59
2023/09/27 22:25:48;;;;;;;5.30;4.43;;;20.10;77.40;;;;;;10492683;28;20036;-59
2023/09/27 22:30:49;;;;;;;5.22;4.40;;;20.10;77.30;;;;;;10517311;28;20398;-59
2023/09/27 22:35:53;;;;;;;5.35;4.68;;;20.10;77.30;;;;;;10535245;28;20119;-58
2023/09/27 22:40:57;;;;;;;6.25;4.47;;;20.10;77.20;;;;;;10532812;28;20085;-59
2023/09/27 22:45:58;;;;;;;5.20;4.07;;;20.10;77.30;;;;;;10523583;28;20055;-59
2023/09/27 22:51:00;;;;;;;5.90;4.28;;;20.10;77.30;;;;;;10491542;28;20056;-59
2023/09/27 22:56:01;;;;;;;6.15;4.63;;;20.10;77.20;;;;;;10492018;28;20066;-59
2023/09/27 23:06:44;;;;;;;5.47;4.47;;;20.10;77.20;;;;;;10485602;28;20581;-59
2023/09/27 23:11:48;;;;;;;4.38;3.92;;;20.10;77.20;;;;;;10485437;28;20040;-59
2023/09/27 23:17:06;;;;;;;5.47;3.70;;;20.10;77.10;;;;;;10485243;28;20071;-59
2023/09/27 23:22:10;;;;;;;5.43;3.97;;;20.10;77.10;;;;;;10484708;28;20442;-59
2023/09/27 23:27:11;;;;;;;4.68;3.55;;;20.10;77.10;;;;;;10484689;28;20049;-59
2023/09/27 23:32:22;;;;;;;5.80;4.32;;;20.10;77.10;;;;;;10520510;28;20035;-58
2023/09/27 23:37:30;;;;;;;4.80;3.53;;;20.10;77.00;;;;;;10526117;28;20111;-58
2023/09/27 23:42:42;;;;;;;5.07;3.47;;;20.10;77.00;;;;;;10530442;28;20628;-58
2023/09/27 23:47:43;;;;;;;4.55;3.58;;;20.10;76.90;;;;;;10506321;28;20035;-59
2023/09/27 23:52:47;;;;;;;5.70;3.95;;;20.00;76.90;;;;;;10489428;28;20406;-58
2023/09/27 23:57:47;;;;;;;4.85;3.83;;;20.10;77.00;;;;;;10489685;28;20017;-59
